Aérodrome :
LOGIN :

S'inscrire | Disclaimer

   EN    FR    IT 

 










Légende :    VFR   VFR Marginal   IFR   IFR Intensif   IFR Très Intensif
Visi : 
Plafond : 
>= 8 km
>= 3000ft
5 à 8 km
1000 à 3000 ft
1500m à 5 km
500 à 1000 ft
800 à 1500m
200 à 500 ft
< 800m
< 200 ft
Symboles :   Orages  Brouillard  Fortes neiges  Fortes précipitations  Vent > 20 kt
SIGMETs :   Divers  Orages  Givrage  Turbulence  Onde Orograph.  Cendres Volcan.






- Altitude de l'aérodrome : 197 ft
- Code IATA : XOG


LFMO - Orange

DERNIER METAR :
  • 271430Z AUTO 14012KT 9999 BKN023 BKN028 OVC033 09/07 Q1009 NOSIG

METARs EXPIRÉS :
  • 271400Z AUTO 14012KT 9999 BKN016 OVC023 09/07 Q1009 NOSIG
  • 271330Z AUTO 13013KT 9999 BKN013 OVC024 08/06 Q1010 BECMG OVC015
  • 271300Z AUTO 13013KT 9999 BKN016 OVC022 07/06 Q1011 NOSIG
  • 271230Z AUTO 14008KT 110V170 9999 OVC016 07/05 Q1012 NOSIG
  • 271200Z AUTO 13010KT 9999 OVC015 06/05 Q1012 TEMPO 2500 +RA BKN014

TAF AMD TAF LFMO
Valide du 27 à 12h jusqu'au 28 à 09h UTC


271201Z 2712/2809 13015KT 9999 OVC015
BECMG 2716/2717 15005KT CAVOK
BECMG 2719/2721 35015KT
BECMG 2800/2802 35015G25KT
TEMPO 2803/2808 35020G35KT



MET'MAP, la Météo Aéronautique d'un coup d'oeil ! - Copyright ORBIFLY Décembre 2007 - Disclaimer

ORBIFLY MET'MAP TEAM :

Programmation & Développement : Alexandra Zaïnal
Sur une idée originale de : Baudouin d'Aumeries
Assistance à la programmation : Marc-Olivier Méhu
Soutien technique & logistique : Manuel Goepfert

Contact : metmap@orbifly.com




SOURCES & CREDITS :

   NOAA